• Join FlightAware (Why Join?)
  • Login
  • US Flag 
12:30PM EDT


 

Airport Tracker/Info


-or-


 

Live Flight TrackerFlight Track Log ✈ UAL5814 ✈ 10-May-2013 ✈ KLAN - KORD

Flight Track Log - Related Links

Times and Time Zones

All times are in EDT time to prevent confusion due to time zone crossing. See the UAL5814 flight status page for this flight to view local times or setup timezone preferences in your user account.

Time Position Orientation Groundspeed Altitude Reporting Facility
EDT Latitude Longitude Course Direction KTS MPH feet Rate Location/Type
06:08AM 42.7797 -84.7250 281° West 220 253 4,500  Level Cleveland Center
06:09AM 42.7806 -84.8089 271° West 225 259 6,900 2,040 Climbing Chicago Center
06:10AM 42.7667 -84.8795 270° West  Level FlightAware Approximate
06:10AM 42.7817 -84.9042 271° West 245 282 8,800  Level Chicago Center
06:11AM 42.7667 -84.9536 270° West  Level FlightAware Approximate
06:11AM 42.7828 -85.0081 271° West 268 308 10,500  Level Chicago Center
06:12AM 42.7705 -85.0271 281° West  Level FlightAware Approximate
06:12AM 42.7717 -85.1247 263° West 308 354 11,600  Level Chicago Center
06:13AM 42.7802 -85.0944 281° West  Level FlightAware Approximate
06:13AM 42.7531 -85.2453 258° West 325 374 13,100  Level Chicago Center
06:14AM 42.7325 -85.3683 257° West 331 381 14,600 1,380 Climbing Chicago Center
06:15AM 42.7125 -85.4919 258° West 334 384 15,900 660 Climbing Chicago Center
06:16AM 42.6911 -85.6239 258° West 350 403 16,000  Climbing Chicago Center
06:17AM 42.6681 -85.7600 257° West 363 418 16,000  Level Chicago Center
06:18AM 42.6456 -85.8953 257° West 365 420 16,000  Level Chicago Center
06:19AM 42.6225 -86.0317 257° West 367 422 16,000  Level Chicago Center
06:20AM 42.6006 -86.1692 258° West 370 426 16,000  Level Chicago Center
06:21AM 42.5769 -86.3067 257° West 372 428 16,000  Level Chicago Center
06:22AM 42.5519 -86.4431 256° West 373 429 16,000  Level Chicago Center
06:23AM 42.5289 -86.5822 257° West 378 435 16,000 -120 Level Chicago Center
06:24AM 42.5053 -86.7183 257° West 373 429 15,800 -1,080 Descending Chicago Center
06:25AM 42.4831 -86.8503 257° West 362 417 13,900 -1,320 Descending Chicago Center
06:26AM 42.4631 -86.9678 257° West 319 367 13,200 -1,200 Descending Chicago Center
06:27AM 42.4433 -87.0667 255° West 277 319 11,500 -1,380 Descending Chicago Center
06:28AM 42.4258 -87.1675 257° West 275 316 10,500 -1,020 Descending Chicago Center
06:29AM 42.4075 -87.2650 256° West 270 311 9,500 -1,020 Descending Chicago Center
06:30AM 42.3878 -87.3608 254° West 266 306 8,500 -1,080 Descending Chicago Center
06:31AM 42.3569 -87.4667 249° West 268 308 7,400 -780 Descending Chicago Center
06:32AM 42.3283 -87.5481 245° Southwest 247 284 7,000 -240 Descending Chicago Center
06:33AM 42.2747 -87.5625 191° South 211 243 7,000 -480 Level Chicago Center
06:34AM 42.2203 -87.5514 171° South 199 229 6,100 -540 Descending Chicago Center
06:35AM 42.1664 -87.5433 174° South 195 224 6,000 -60 Descending Chicago Center
06:36AM 42.1239 -87.4992 142° Southeast 208 239 6,000  Level Chicago Center
06:37AM 42.1000 -87.4500 123° Southeast 211 243 6,000 -540 Level Chicago TRACON
06:38AM 42.0500 -87.4000 143° Southeast 206 237 5,100 -720 Descending Chicago TRACON
06:39AM 42.0000 -87.4000 180° South 194 223 4,500 -600 Descending Chicago TRACON
06:40AM 41.9667 -87.4333 217° Southwest 173 199 4,000 -240 Descending Chicago TRACON
06:41AM 41.9667 -87.5167 270° West 173 199 4,000  Level Chicago TRACON
06:42AM 41.9667 -87.5667 270° West 173 199 4,000  Level Chicago TRACON
06:43AM 41.9667 -87.6333 270° West 173 199 4,000 -240 Level Chicago TRACON
06:44AM 41.9667 -87.6833 270° West 175 201 3,600 -780 Descending Chicago TRACON
06:45AM 41.9667 -87.7500 270° West 169 194 2,600 -1,020 Descending Chicago TRACON